Achim Manz-Bothe 1:30:00 row

22,025

Meters

1:30:00.0

Time

2:02.5

Pace

1415

Calories

138

Heart Rate

Average Watts190
Calories Per Hour943
Stroke Rate25

September 20, 2018 15:50:00

Workout
RowErg

Workout Type
Fixed Time

Weight Class
Hwt

Verified
Yes

Entered
Concept2 Utility

Splits

Time Meters Pace Watts Cal/Hr Cal S/M
1:30:00.0 22,025 2:02.5 190 943 1415 25 138
3:00.0 725 2:04.1 183 920 46 25 123
6:00.0 727 2:03.7 184 920 46 25 126
9:00.0 731 2:03.1 188 940 47 25 128
12:00.0 731 2:03.1 188 940 47 25 128
15:00.0 731 2:03.1 188 940 47 25 130
18:00.0 732 2:02.9 188 940 47 25 131
21:00.0 729 2:03.4 186 940 47 25 132
24:00.0 732 2:02.9 188 940 47 25 131
27:00.0 730 2:03.2 187 940 47 25 133
30:00.0 732 2:02.9 188 940 47 25 135
33:00.0 731 2:03.1 188 940 47 25 135
36:00.0 732 2:02.9 188 940 47 25 137
39:00.0 733 2:02.7 189 940 47 25 137
42:00.0 733 2:02.7 189 940 47 25 138
45:00.0 734 2:02.6 190 940 47 25 139
48:00.0 735 2:02.4 191 940 47 25 140
51:00.0 736 2:02.2 191 940 47 25 141
54:00.0 736 2:02.2 191 940 47 25 140
57:00.0 735 2:02.4 191 940 47 25 138
1:00:00.0 736 2:02.2 191 940 47 26 142
1:03:00.0 736 2:02.2 191 940 47 25 143
1:06:00.0 735 2:02.4 191 940 47 25 144
1:09:00.0 738 2:01.9 193 960 48 26 144
1:12:00.0 735 2:02.4 191 940 47 26 145
1:15:00.0 736 2:02.2 191 940 47 26 145
1:18:00.0 738 2:01.9 193 960 48 26 145
1:21:00.0 738 2:01.9 193 960 48 26 146
1:24:00.0 739 2:01.7 194 960 48 26 147
1:27:00.0 742 2:01.2 196 960 48 26 149
1:30:00.0 748 2:00.3 201 980 49 27 151